Time;durP1;ratioP1;P1;durP2;ratioP2;P2;SDS_P1;SDS_P2;PMS_P1;PMS_P2;Temp;Humidity;BMP_temperature;BMP_pressure;BME280_temperature;BME280_humidity;BME280_pressure;Samples;Min_cycle;Max_cycle;Signal;HPM_P1;HPM_P2
2023/08/22 00:02:14;;;;;;;1.88;1.05;;;23.20;57.70;24.90;101960.00;;;;5046068;28;20203;-78
2023/08/22 00:04:43;;;;;;;3.33;1.60;;;23.20;57.70;24.90;101955.00;;;;5046790;28;20592;-77
2023/08/22 00:07:10;;;;;;;3.55;1.38;;;23.20;57.80;24.90;101955.00;;;;5047403;28;20246;-78
2023/08/22 00:09:37;;;;;;;3.30;1.70;;;23.20;57.80;24.90;101967.00;;;;5046689;28;20682;-77
2023/08/22 00:12:05;;;;;;;3.15;1.65;;;23.20;57.80;24.90;101959.00;;;;5045189;28;20227;-77
2023/08/22 00:14:32;;;;;;;4.22;1.55;;;23.20;58.40;24.90;101964.00;;;;5040050;28;20305;-77
2023/08/22 00:16:59;;;;;;;1.95;1.40;;;23.20;57.90;24.90;101961.00;;;;5046184;28;20215;-77
2023/08/22 00:19:26;;;;;;;1.80;1.02;;;23.20;57.80;24.90;101967.00;;;;5044391;28;20919;-77
2023/08/22 00:21:54;;;;;;;2.13;1.35;;;23.20;57.80;24.90;101965.00;;;;5036298;28;20222;-77
2023/08/22 00:24:21;;;;;;;2.40;1.50;;;23.20;57.90;24.90;101969.00;;;;5045937;28;20658;-77
2023/08/22 00:26:48;;;;;;;3.67;1.52;;;23.20;57.90;24.90;101966.00;;;;5046596;28;20828;-77
2023/08/22 00:29:15;;;;;;;1.83;1.23;;;23.10;57.90;24.90;101970.00;;;;5047778;28;20200;-77
2023/08/22 00:31:42;;;;;;;2.15;1.58;;;23.10;57.90;24.90;101962.00;;;;5047523;28;20234;-77
2023/08/22 00:34:09;;;;;;;2.78;1.55;;;23.10;57.90;24.90;101957.00;;;;5046902;28;20203;-78
2023/08/22 00:36:36;;;;;;;2.33;1.40;;;23.10;58.00;24.80;101952.00;;;;5046374;28;20206;-78
2023/08/22 00:39:04;;;;;;;1.88;1.27;;;23.10;58.00;24.80;101955.00;;;;5045827;28;20197;-78
2023/08/22 00:41:32;;;;;;;2.42;1.30;;;23.10;58.10;24.80;101945.00;;;;5046019;28;20211;-78
2023/08/22 00:43:59;;;;;;;2.20;1.27;;;23.10;58.10;24.80;101947.00;;;;5044138;28;20207;-78
2023/08/22 00:46:29;;;;;;;1.65;1.20;;;23.10;58.20;24.80;101937.00;;;;5047432;28;20233;-78
2023/08/22 00:48:58;;;;;;;1.52;1.10;;;23.10;58.20;24.80;101931.00;;;;5046994;28;20200;-78
2023/08/22 00:51:25;;;;;;;1.55;1.27;;;23.00;58.20;24.80;101931.00;;;;5047967;28;20196;-78
2023/08/22 00:53:53;;;;;;;2.10;1.55;;;23.10;58.20;24.80;101929.00;;;;5046986;28;20226;-78
2023/08/22 00:56:21;;;;;;;1.48;1.30;;;23.00;58.30;24.70;101928.00;;;;5027994;28;20204;-78
2023/08/22 00:58:50;;;;;;;2.33;1.02;;;23.00;58.30;24.70;101933.00;;;;5040053;28;20196;-78
2023/08/22 01:01:17;;;;;;;1.35;1.25;;;23.00;58.30;24.70;101935.00;;;;5044424;28;20211;-78
2023/08/22 01:03:44;;;;;;;1.92;1.10;;;23.00;58.40;24.70;101936.00;;;;5045091;28;20203;-78
2023/08/22 01:06:24;;;;;;;2.40;1.60;;;23.00;58.40;24.60;101943.00;;;;5046930;28;20230;-78
2023/08/22 01:09:04;;;;;;;2.92;1.38;;;23.00;58.60;24.60;101941.00;;;;5047210;28;20296;-78
2023/08/22 01:11:39;;;;;;;2.22;1.45;;;23.00;58.50;24.60;101941.00;;;;5042161;28;20691;-78
2023/08/22 01:14:12;;;;;;;1.73;1.35;;;22.90;58.50;24.60;101935.00;;;;5033311;28;20551;-79
2023/08/22 01:16:40;;;;;;;1.38;1.17;;;22.90;58.50;24.70;101924.00;;;;5049837;28;20207;-78
2023/08/22 01:19:11;;;;;;;1.35;1.15;;;23.00;58.60;24.60;101921.00;;;;5050782;28;20210;-77
2023/08/22 01:21:49;;;;;;;1.80;1.30;;;22.90;58.50;24.60;101910.00;;;;5050726;28;20279;-78
2023/08/22 01:24:16;;;;;;;1.73;1.30;;;22.90;58.50;24.60;101904.00;;;;5049906;28;20210;-78
2023/08/22 01:26:44;;;;;;;3.20;1.10;;;22.90;58.50;24.60;101901.00;;;;5049605;28;20232;-78
2023/08/22 01:29:17;;;;;;;1.52;1.13;;;22.90;58.60;24.50;101908.00;;;;5046329;28;20250;-78
2023/08/22 01:32:01;;;;;;;2.35;1.30;;;22.80;58.50;24.40;101905.00;;;;5043662;28;20218;-77
2023/08/22 01:34:32;;;;;;;1.55;0.95;;;22.80;58.80;24.50;101900.00;;;;5045090;28;20675;-78
2023/08/22 01:37:02;;;;;;;1.60;1.05;;;22.80;58.50;24.50;101902.00;;;;5048994;28;20588;-78
2023/08/22 01:39:31;;;;;;;3.15;1.45;;;22.80;58.60;24.50;101889.00;;;;5049051;28;20203;-77
2023/08/22 01:41:59;;;;;;;3.25;1.20;;;22.80;58.70;24.50;101894.00;;;;5048453;28;20215;-78
2023/08/22 01:44:28;;;;;;;3.08;1.38;;;22.80;58.70;24.50;101907.00;;;;5049153;28;20208;-78
2023/08/22 01:46:55;;;;;;;2.33;1.40;;;22.70;58.70;24.40;101900.00;;;;5048357;28;20188;-78
2023/08/22 01:49:22;;;;;;;2.30;1.55;;;22.70;58.80;24.40;101900.00;;;;5048058;28;20648;-78
2023/08/22 01:51:49;;;;;;;2.22;1.30;;;22.70;58.80;24.40;101908.00;;;;5050001;28;20195;-78
2023/08/22 01:54:17;;;;;;;3.35;1.80;;;22.70;58.80;24.40;101899.00;;;;5050117;28;20231;-78
2023/08/22 01:56:45;;;;;;;2.72;1.85;;;22.70;58.90;24.40;101895.00;;;;5047186;28;20208;-78
2023/08/22 01:59:12;;;;;;;3.22;1.02;;;22.60;58.80;24.40;101897.00;;;;5049893;28;20238;-78
2023/08/22 02:01:39;;;;;;;2.08;1.58;;;22.60;58.90;24.40;101896.00;;;;5047965;28;20215;-79
2023/08/22 02:04:06;;;;;;;2.08;1.65;;;22.60;58.90;24.40;101893.00;;;;5049395;28;20644;-79
2023/08/22 02:06:33;;;;;;;4.32;1.50;;;22.60;59.00;24.30;101907.00;;;;5049737;28;20220;-79
2023/08/22 02:09:00;;;;;;;3.03;1.70;;;22.60;59.00;24.30;101903.00;;;;5049141;28;20206;-79
2023/08/22 02:11:29;;;;;;;2.38;1.52;;;22.60;59.00;24.30;101897.00;;;;5050038;28;20578;-79
2023/08/22 02:13:56;;;;;;;2.38;1.73;;;22.60;59.00;24.30;101904.00;;;;5038205;28;20235;-79
2023/08/22 02:16:23;;;;;;;5.30;2.00;;;22.60;59.10;24.30;101892.00;;;;5048952;28;20200;-79
2023/08/22 02:18:50;;;;;;;4.28;1.55;;;22.50;59.00;24.30;101892.00;;;;5049147;28;20235;-79
2023/08/22 02:21:18;;;;;;;2.25;1.40;;;22.50;59.00;24.20;101889.00;;;;5048881;28;20202;-79
2023/08/22 02:23:45;;;;;;;2.35;1.30;;;22.50;59.10;24.20;101889.00;;;;5049616;28;20191;-79
2023/08/22 02:26:12;;;;;;;1.90;1.38;;;22.50;59.10;24.20;101897.00;;;;5043926;28;20234;-79
2023/08/22 02:28:40;;;;;;;2.03;1.60;;;22.50;59.20;24.20;101902.00;;;;5049343;28;20196;-79
2023/08/22 02:31:07;;;;;;;3.03;1.70;;;22.50;59.20;24.20;101898.00;;;;5048550;28;20204;-79
2023/08/22 02:33:34;;;;;;;3.63;1.85;;;22.40;59.10;24.20;101894.00;;;;5047584;28;20584;-79
2023/08/22 02:36:01;;;;;;;4.65;1.50;;;22.40;59.20;24.10;101895.00;;;;5047257;28;20202;-79
2023/08/22 02:38:28;;;;;;;2.22;1.45;;;22.40;59.20;24.10;101890.00;;;;5044637;28;20253;-79
2023/08/22 02:40:55;;;;;;;2.47;1.75;;;22.30;59.20;24.10;101890.00;;;;5048193;28;20203;-79
2023/08/22 02:43:22;;;;;;;3.50;1.58;;;22.30;59.20;24.00;101888.00;;;;5047311;28;20196;-79
2023/08/22 02:45:50;;;;;;;2.75;1.60;;;22.30;59.20;24.00;101886.00;;;;5045274;28;20700;-79
2023/08/22 02:48:17;;;;;;;3.10;1.52;;;22.30;59.80;24.00;101893.00;;;;5048742;28;20211;-79
2023/08/22 02:50:44;;;;;;;3.75;1.90;;;22.20;59.20;24.00;101891.00;;;;5048237;28;20203;-79
2023/08/22 02:53:14;;;;;;;2.10;1.80;;;22.20;59.30;23.90;101892.00;;;;5047130;28;20223;-78
2023/08/22 02:55:41;;;;;;;1.73;1.60;;;22.20;59.30;23.90;101896.00;;;;5046983;28;20203;-79
2023/08/22 02:58:08;;;;;;;2.40;1.70;;;22.20;59.40;23.90;101900.00;;;;5037860;28;20203;-79
2023/08/22 03:00:37;;;;;;;1.75;1.52;;;22.20;59.40;23.90;101896.00;;;;5042668;28;20806;-78
2023/08/22 03:03:07;;;;;;;2.30;1.63;;;22.10;59.70;23.80;101891.00;;;;5042121;28;20207;-79
2023/08/22 03:05:35;;;;;;;3.30;1.50;;;22.10;59.50;23.80;101879.00;;;;5047007;28;20266;-79
2023/08/22 03:08:02;;;;;;;2.97;1.63;;;22.10;59.50;23.80;101873.00;;;;5047770;28;20207;-79
2023/08/22 03:10:29;;;;;;;3.10;2.10;;;22.00;59.40;23.80;101870.00;;;;5046403;28;20196;-79
2023/08/22 03:12:56;;;;;;;1.98;1.58;;;22.00;59.40;23.70;101870.00;;;;5046718;28;20234;-79
2023/08/22 03:15:23;;;;;;;3.35;1.75;;;22.00;59.50;23.70;101877.00;;;;5048072;28;20208;-79
2023/08/22 03:17:50;;;;;;;2.42;1.70;;;22.00;59.50;23.70;101885.00;;;;5046133;28;20565;-76
2023/08/22 03:20:18;;;;;;;2.25;1.63;;;22.00;59.60;23.70;101878.00;;;;5047344;28;20690;-76
2023/08/22 03:22:45;;;;;;;2.47;1.85;;;21.90;59.60;23.70;101873.00;;;;5047764;28;20207;-76
2023/08/22 03:25:12;;;;;;;1.70;1.25;;;21.90;59.60;23.60;101879.00;;;;5047828;28;20576;-76
2023/08/22 03:27:40;;;;;;;2.22;1.40;;;21.90;59.60;23.60;101874.00;;;;5042429;28;20287;-77
2023/08/22 03:30:08;;;;;;;2.80;1.65;;;21.90;59.70;23.60;101871.00;;;;5040829;28;20242;-77
2023/08/22 03:32:35;;;;;;;2.38;1.50;;;21.80;59.70;23.60;101864.00;;;;5048131;28;20203;-77
2023/08/22 03:35:03;;;;;;;2.08;1.50;;;21.80;59.60;23.50;101873.00;;;;5047582;28;20195;-77
2023/08/22 03:37:32;;;;;;;2.75;1.35;;;21.80;59.70;23.50;101870.00;;;;5046958;28;20196;-77
2023/08/22 03:39:59;;;;;;;2.38;1.30;;;21.80;59.70;23.50;101858.00;;;;5044378;28;20203;-77
2023/08/22 03:42:26;;;;;;;3.38;1.95;;;21.70;59.70;23.50;101858.00;;;;5047833;28;20195;-77
2023/08/22 03:44:53;;;;;;;3.75;1.90;;;21.70;59.70;23.50;101854.00;;;;5043860;28;20191;-77
2023/08/22 03:47:20;;;;;;;1.83;1.58;;;21.70;59.70;23.50;101859.00;;;;5047885;28;20726;-78
2023/08/22 03:49:47;;;;;;;3.67;1.50;;;21.70;59.80;23.40;101861.00;;;;5047334;28;20290;-77
2023/08/22 03:52:14;;;;;;;3.00;1.50;;;21.70;59.80;23.40;101857.00;;;;5048129;28;20199;-77
2023/08/22 03:54:42;;;;;;;1.60;1.33;;;21.60;59.80;23.40;101857.00;;;;5046164;28;20575;-77
2023/08/22 03:57:09;;;;;;;3.72;1.60;;;21.60;59.80;23.40;101860.00;;;;5046198;28;20191;-77
2023/08/22 03:59:36;;;;;;;1.77;1.48;;;21.60;59.80;23.40;101857.00;;;;5047142;28;20198;-77
2023/08/22 04:02:03;;;;;;;3.33;1.88;;;21.60;59.80;23.30;101850.00;;;;5032200;28;20200;-77
2023/08/22 04:04:30;;;;;;;2.70;1.45;;;21.60;59.80;23.30;101849.00;;;;5042138;28;20196;-77
2023/08/22 04:06:58;;;;;;;2.67;1.65;;;21.50;59.80;23.30;101850.00;;;;5047568;28;20323;-77
2023/08/22 04:09:25;;;;;;;2.17;1.65;;;21.50;60.50;23.30;101843.00;;;;5034711;28;20200;-77
2023/08/22 04:11:55;;;;;;;1.60;1.33;;;21.50;59.90;23.20;101854.00;;;;5035157;28;20942;-77
2023/08/22 04:14:22;;;;;;;3.13;1.63;;;21.40;59.90;23.20;101849.00;;;;5047770;28;20204;-77
2023/08/22 04:16:49;;;;;;;2.65;1.73;;;21.50;59.90;23.20;101844.00;;;;5047205;28;20191;-77
2023/08/22 04:19:16;;;;;;;4.32;1.50;;;21.40;60.00;23.20;101837.00;;;;5039603;28;20191;-77
2023/08/22 04:21:43;;;;;;;3.10;2.00;;;21.40;60.00;23.20;101846.00;;;;5046765;28;20659;-77
2023/08/22 04:24:11;;;;;;;2.42;1.88;;;21.40;60.00;23.20;101844.00;;;;5047383;28;20326;-77
2023/08/22 04:26:38;;;;;;;4.85;2.00;;;21.40;60.00;23.10;101839.00;;;;5045608;28;20309;-77
2023/08/22 04:29:07;;;;;;;2.17;1.65;;;21.40;60.10;23.10;101850.00;;;;5046852;28;20786;-79
2023/08/22 04:31:34;;;;;;;4.68;2.30;;;21.30;60.20;23.10;101847.00;;;;5047110;28;20203;-77
2023/08/22 04:34:01;;;;;;;3.38;2.15;;;21.30;60.10;23.10;101845.00;;;;5046042;28;20207;-77
2023/08/22 04:36:28;;;;;;;2.78;2.22;;;21.30;60.10;23.10;101852.00;;;;5045610;28;20623;-78
2023/08/22 04:38:55;;;;;;;3.47;2.10;;;21.30;60.20;23.00;101856.00;;;;5045460;28;20206;-78
2023/08/22 04:41:22;;;;;;;4.85;1.98;;;21.20;60.20;23.00;101858.00;;;;5046956;28;20191;-77
2023/08/22 04:43:49;;;;;;;2.85;1.77;;;21.20;60.20;23.00;101862.00;;;;5045841;28;20192;-77
2023/08/22 04:46:18;;;;;;;2.40;1.70;;;21.20;60.30;23.00;101870.00;;;;5046974;28;20699;-77
2023/08/22 04:48:45;;;;;;;3.47;2.10;;;21.20;60.40;23.00;101877.00;;;;5048161;28;20208;-77
2023/08/22 04:51:12;;;;;;;3.58;2.17;;;21.20;60.40;23.00;101885.00;;;;5051341;28;20214;-77
2023/08/22 04:53:39;;;;;;;4.15;2.00;;;21.20;60.40;23.00;101881.00;;;;5050054;28;20227;-77
2023/08/22 04:56:06;;;;;;;4.55;2.83;;;21.20;60.50;22.90;101886.00;;;;5044232;28;20459;-76
2023/08/22 04:58:33;;;;;;;4.53;2.97;;;21.00;61.90;23.00;101889.00;;;;5047686;28;20651;-78
2023/08/22 05:01:00;;;;;;;2.78;1.70;;;21.10;61.70;23.00;101886.00;;;;5047905;28;20907;-77
2023/08/22 05:03:28;;;;;;;2.25;1.85;;;21.10;61.40;23.00;101877.00;;;;5050848;28;20203;-78
2023/08/22 05:05:55;;;;;;;2.13;1.77;;;21.10;61.20;22.90;101873.00;;;;5050455;28;20222;-78
2023/08/22 05:08:22;;;;;;;1.98;1.70;;;21.10;61.10;22.90;101879.00;;;;5050612;28;20207;-79
2023/08/22 05:10:49;;;;;;;2.95;1.95;;;21.10;61.00;22.90;101870.00;;;;5032422;28;20192;-77
2023/08/22 05:13:16;;;;;;;3.42;2.05;;;21.10;60.90;22.90;101875.00;;;;5045705;28;20769;-78
2023/08/22 05:15:43;;;;;;;3.47;2.28;;;21.20;61.10;22.90;101876.00;;;;5047997;28;20664;-77
2023/08/22 05:18:10;;;;;;;4.07;2.38;;;21.20;61.10;22.90;101870.00;;;;5048022;28;20674;-78
2023/08/22 05:20:41;;;;;;;4.00;2.17;;;21.10;61.00;22.90;101876.00;;;;5049164;28;20686;-77
2023/08/22 05:23:08;;;;;;;2.70;1.98;;;21.10;61.20;22.90;101876.00;;;;5050318;28;20199;-77
2023/08/22 05:25:35;;;;;;;2.65;2.03;;;21.20;61.20;22.90;101870.00;;;;5044584;28;20211;-77
2023/08/22 05:28:02;;;;;;;4.40;2.40;;;21.20;61.30;22.90;101873.00;;;;5046583;28;20230;-76
2023/08/22 05:30:29;;;;;;;5.43;2.38;;;21.20;61.30;22.90;101870.00;;;;5048074;28;20249;-77
2023/08/22 05:32:56;;;;;;;5.93;2.55;;;21.20;61.30;22.90;101876.00;;;;5047838;28;20682;-77
2023/08/22 05:35:24;;;;;;;4.43;2.20;;;21.20;61.30;22.90;101875.00;;;;5050016;28;21027;-77
2023/08/22 05:37:52;;;;;;;2.58;1.83;;;21.20;61.40;22.90;101870.00;;;;5049459;28;20191;-77
2023/08/22 05:40:19;;;;;;;3.22;2.17;;;21.20;61.40;23.00;101863.00;;;;5048316;28;20207;-77
2023/08/22 05:42:46;;;;;;;4.00;2.17;;;21.20;61.40;23.00;101863.00;;;;5048607;28;20616;-77
2023/08/22 05:45:13;;;;;;;2.97;2.30;;;21.30;61.60;23.00;101864.00;;;;5040601;28;20584;-77
2023/08/22 05:47:40;;;;;;;3.28;2.08;;;21.30;61.70;23.00;101858.00;;;;5040789;28;20230;-77
2023/08/22 05:50:09;;;;;;;6.68;2.10;;;21.30;61.80;23.00;101860.00;;;;5047239;28;20203;-77
2023/08/22 05:52:36;;;;;;;3.50;2.53;;;21.30;61.80;23.10;101864.00;;;;5042517;28;20211;-77
2023/08/22 05:55:10;;;;;;;7.35;3.13;;;21.30;61.90;23.00;101871.00;;;;5048676;28;20674;-78
2023/08/22 05:57:37;;;;;;;3.08;2.67;;;21.30;62.10;23.10;101870.00;;;;5047593;28;20204;-78
2023/08/22 06:00:08;;;;;;;3.58;2.92;;;21.40;62.70;23.20;101872.00;;;;5047276;28;20541;-78
2023/08/22 06:02:35;;;;;;;6.82;3.13;;;21.40;62.00;23.20;101877.00;;;;5044009;28;20967;-78
2023/08/22 06:05:03;;;;;;;4.93;3.05;;;21.50;62.10;23.20;101875.00;;;;5042293;28;20192;-78
2023/08/22 06:07:30;;;;;;;3.13;2.45;;;21.50;62.20;23.30;101876.00;;;;5030759;28;20868;-78
2023/08/22 06:09:58;;;;;;;4.68;2.75;;;21.50;62.20;23.30;101881.00;;;;5049837;28;20207;-78
2023/08/22 06:12:26;;;;;;;3.15;2.42;;;21.60;62.30;23.30;101879.00;;;;5049453;28;20254;-78
2023/08/22 06:14:53;;;;;;;4.60;3.20;;;21.60;62.40;23.40;101870.00;;;;5048020;28;20208;-78
2023/08/22 06:17:20;;;;;;;3.63;2.85;;;21.60;62.30;23.40;101870.00;;;;5042457;28;20208;-78
2023/08/22 06:19:48;;;;;;;4.25;2.53;;;21.70;62.30;23.50;101871.00;;;;5048728;28;20192;-79
2023/08/22 06:22:15;;;;;;;5.75;3.45;;;21.80;62.40;23.50;101865.00;;;;5045135;28;20195;-78
2023/08/22 06:24:42;;;;;;;7.32;3.67;;;21.80;62.40;23.60;101859.00;;;;5048025;28;20202;-78
2023/08/22 06:27:09;;;;;;;3.95;3.45;;;21.90;62.50;23.60;101858.00;;;;5047994;28;20227;-78
2023/08/22 06:29:37;;;;;;;4.57;3.55;;;21.90;62.40;23.70;101873.00;;;;5048164;28;20208;-78
2023/08/22 06:32:05;;;;;;;7.75;3.85;;;22.00;62.60;23.80;101883.00;;;;5047115;28;20196;-78
2023/08/22 06:34:32;;;;;;;8.00;3.63;;;22.00;62.50;23.80;101881.00;;;;5042435;28;20195;-78
2023/08/22 06:36:59;;;;;;;3.92;3.15;;;22.10;62.50;23.80;101878.00;;;;5041462;28;20203;-78
2023/08/22 06:39:27;;;;;;;5.13;3.47;;;22.10;62.40;23.90;101876.00;;;;5046127;28;20682;-78
2023/08/22 06:41:54;;;;;;;6.03;3.53;;;22.10;62.30;23.90;101887.00;;;;5046256;28;20278;-78
2023/08/22 06:44:21;;;;;;;6.85;4.03;;;22.20;62.40;24.00;101884.00;;;;5042395;28;20204;-78
2023/08/22 06:46:50;;;;;;;5.40;3.78;;;22.20;62.40;24.00;101879.00;;;;5040553;28;20235;-78
2023/08/22 06:49:17;;;;;;;4.47;3.47;;;22.20;62.30;24.00;101878.00;;;;5040917;28;20195;-78
2023/08/22 06:51:44;;;;;;;4.65;4.15;;;22.30;62.40;24.10;101875.00;;;;5042237;28;20192;-78
2023/08/22 06:54:10;;;;;;;4.15;3.13;;;22.30;62.40;24.20;101874.00;;;;5041350;28;20226;-78
2023/08/22 06:56:37;;;;;;;4.82;3.95;;;22.40;62.50;24.20;101879.00;;;;5043094;28;20203;-78
2023/08/22 06:59:05;;;;;;;4.70;3.92;;;22.40;62.50;24.30;101880.00;;;;5043194;28;20200;-79
2023/08/22 07:01:32;;;;;;;4.85;3.75;;;22.50;62.60;24.40;101883.00;;;;5040039;28;20200;-79
2023/08/22 07:04:00;;;;;;;4.15;3.33;;;22.60;62.60;24.50;101881.00;;;;5040298;28;20196;-79
2023/08/22 07:06:27;;;;;;;7.30;3.92;;;22.60;62.50;24.60;101879.00;;;;5041320;28;20682;-79
2023/08/22 07:08:54;;;;;;;4.25;3.15;;;22.80;62.60;24.70;101884.00;;;;5038338;28;20200;-79
2023/08/22 07:11:21;;;;;;;3.95;3.35;;;22.80;62.50;24.80;101892.00;;;;5043131;28;20210;-78
2023/08/22 07:13:50;;;;;;;3.95;3.25;;;23.00;62.40;24.90;101896.00;;;;5039395;28;20234;-78
2023/08/22 07:16:17;;;;;;;4.72;3.45;;;23.10;62.40;24.90;101890.00;;;;5037191;28;20703;-79
2023/08/22 07:18:44;;;;;;;4.50;3.10;;;23.20;62.40;25.00;101891.00;;;;5035737;28;20816;-79
2023/08/22 07:21:12;;;;;;;3.42;2.97;;;23.30;62.80;25.10;101892.00;;;;5046275;28;20200;-79
2023/08/22 07:23:39;;;;;;;6.80;3.30;;;23.40;62.30;25.20;101899.00;;;;5046596;28;20202;-79
2023/08/22 07:26:07;;;;;;;3.97;2.88;;;23.50;62.20;25.30;101891.00;;;;5042865;28;20203;-78
2023/08/22 07:28:34;;;;;;;5.60;3.30;;;23.60;62.10;25.40;101901.00;;;;5038064;28;20489;-79
2023/08/22 07:31:04;;;;;;;5.68;2.60;;;23.60;62.00;25.50;101898.00;;;;5044810;28;20204;-79
2023/08/22 07:33:31;;;;;;;3.88;2.50;;;23.70;62.00;25.60;101899.00;;;;5040636;28;20249;-78
2023/08/22 07:35:58;;;;;;;4.40;2.42;;;23.90;62.00;25.70;101907.00;;;;5036150;28;20196;-79
2023/08/22 07:38:27;;;;;;;7.15;2.63;;;24.00;61.70;25.80;101902.00;;;;5040372;28;20191;-78
2023/08/22 07:40:54;;;;;;;5.50;2.72;;;24.10;61.40;25.90;101907.00;;;;5038138;28;20192;-78
2023/08/22 07:43:21;;;;;;;4.25;2.30;;;24.20;61.10;26.00;101905.00;;;;5038246;28;20204;-79
2023/08/22 07:45:48;;;;;;;3.35;2.42;;;24.30;60.90;26.10;101905.00;;;;5040564;28;20671;-78
2023/08/22 07:48:16;;;;;;;5.57;2.15;;;24.40;60.70;26.10;101905.00;;;;5041319;28;20293;-78
2023/08/22 07:50:43;;;;;;;4.68;2.25;;;24.50;60.60;26.20;101913.00;;;;5041931;28;20196;-78
2023/08/22 07:53:10;;;;;;;5.68;2.28;;;24.60;60.40;26.30;101927.00;;;;5040468;28;20251;-79
2023/08/22 07:55:39;;;;;;;5.53;2.60;;;24.60;60.10;26.30;101930.00;;;;5044610;28;20195;-79
2023/08/22 07:58:06;;;;;;;2.63;2.35;;;24.70;59.90;26.40;101932.00;;;;5042483;28;20204;-79
2023/08/22 08:00:33;;;;;;;5.20;2.00;;;24.80;59.80;26.50;101941.00;;;;5040208;28;20287;-80
2023/08/22 08:03:00;;;;;;;3.28;2.17;;;24.90;59.70;26.50;101945.00;;;;5040348;28;20533;-78
2023/08/22 08:05:27;;;;;;;3.08;2.72;;;24.90;59.50;26.60;101950.00;;;;5036984;28;20202;-78
2023/08/22 08:07:54;;;;;;;3.78;2.38;;;25.00;59.40;26.60;101950.00;;;;5042923;28;20227;-79
2023/08/22 08:10:21;;;;;;;3.60;2.70;;;25.00;59.30;26.70;101950.00;;;;5041695;28;20199;-78
2023/08/22 08:12:50;;;;;;;4.90;2.10;;;25.10;59.30;26.70;101950.00;;;;5044346;28;20234;-78
2023/08/22 08:15:17;;;;;;;3.90;2.28;;;25.20;59.30;26.80;101959.00;;;;5032603;28;20574;-78
2023/08/22 08:17:44;;;;;;;4.95;2.78;;;25.20;59.20;26.80;101944.00;;;;5039587;28;20203;-78
2023/08/22 08:20:13;;;;;;;5.47;2.65;;;25.20;59.70;26.80;101956.00;;;;5039677;28;20723;-77
2023/08/22 08:22:40;;;;;;;3.17;2.13;;;25.30;59.00;26.90;101948.00;;;;5035952;28;20203;-78
2023/08/22 08:25:08;;;;;;;3.70;1.95;;;25.30;59.00;26.90;101946.00;;;;5040992;28;20208;-78
2023/08/22 08:27:35;;;;;;;5.10;2.20;;;25.30;58.80;26.90;101943.00;;;;5040417;28;20220;-78
2023/08/22 08:30:05;;;;;;;2.33;1.77;;;25.30;58.70;26.90;101946.00;;;;5040655;28;20196;-78
2023/08/22 08:32:32;;;;;;;3.05;2.22;;;25.40;58.90;27.00;101947.00;;;;5039520;28;20918;-78
2023/08/22 08:34:59;;;;;;;4.07;2.42;;;25.40;58.90;27.10;101941.00;;;;5041563;28;20671;-78
2023/08/22 08:37:28;;;;;;;6.60;2.55;;;25.50;58.90;27.10;101937.00;;;;5042302;28;20203;-79
2023/08/22 08:39:56;;;;;;;5.20;2.28;;;25.50;58.90;27.20;101954.00;;;;5042781;28;20196;-77
2023/08/22 08:42:23;;;;;;;4.38;2.35;;;25.60;58.90;27.30;101953.00;;;;5040642;28;20201;-77
2023/08/22 08:44:51;;;;;;;3.97;2.60;;;25.60;58.90;27.30;101944.00;;;;5041220;28;20203;-78
2023/08/22 08:47:20;;;;;;;3.88;2.05;;;25.70;58.80;27.40;101944.00;;;;5038544;28;20754;-79
2023/08/22 08:49:48;;;;;;;4.05;2.45;;;25.80;58.50;27.40;101944.00;;;;5040058;28;20204;-79
2023/08/22 08:52:15;;;;;;;2.03;1.52;;;25.80;58.20;27.40;101937.00;;;;5032832;28;20208;-78
2023/08/22 08:54:45;;;;;;;3.03;1.60;;;25.90;58.10;27.50;101938.00;;;;5036500;28;20571;-78
2023/08/22 08:57:12;;;;;;;4.43;2.22;;;25.90;57.70;27.50;101930.00;;;;5042520;28;20210;-80
2023/08/22 08:59:41;;;;;;;4.40;2.22;;;25.90;57.60;27.50;101930.00;;;;5039249;28;20206;-79
2023/08/22 09:02:16;;;;;;;2.65;2.08;;;26.00;57.60;27.50;101929.00;;;;5039193;28;20204;-79
2023/08/22 09:04:44;;;;;;;5.07;2.40;;;26.00;57.50;27.60;101928.00;;;;5033134;28;20824;-79
2023/08/22 09:07:11;;;;;;;5.45;2.03;;;26.00;57.50;27.60;101932.00;;;;5035721;28;20216;-79
2023/08/22 09:09:38;;;;;;;2.60;2.10;;;26.00;57.40;27.60;101922.00;;;;5039882;28;20206;-79
2023/08/22 09:12:10;;;;;;;2.22;1.80;;;26.10;57.40;27.60;101925.00;;;;5004168;28;1051683;-79
2023/08/22 09:14:46;;;;;;;13.38;2.65;;;26.10;57.30;27.70;101929.00;;;;5039223;28;20195;-79
2023/08/22 09:17:15;;;;;;;3.70;1.80;;;26.10;57.20;27.80;101929.00;;;;5031526;28;20560;-79
2023/08/22 09:19:44;;;;;;;3.58;2.35;;;26.20;57.30;27.80;101941.00;;;;5032604;28;20199;-79
2023/08/22 09:22:14;;;;;;;2.42;1.60;;;26.20;57.00;27.80;101949.00;;;;5028534;28;20200;-78
2023/08/22 09:24:51;;;;;;;4.00;2.25;;;26.30;57.50;27.80;101939.00;;;;5037298;28;20200;-79
2023/08/22 09:27:23;;;;;;;4.25;1.80;;;26.30;56.60;27.90;101946.00;;;;5037046;28;20309;-79
2023/08/22 09:29:50;;;;;;;5.97;2.25;;;26.40;56.80;28.00;101948.00;;;;5032858;28;20204;-79
2023/08/22 09:32:17;;;;;;;4.35;1.60;;;26.50;56.90;28.10;101944.00;;;;5035981;28;20200;-79
2023/08/22 09:34:56;;;;;;;2.78;1.67;;;26.50;56.80;28.00;101945.00;;;;5047405;28;20201;-79
2023/08/22 09:37:33;;;;;;;2.35;1.35;;;26.60;56.20;28.10;101937.00;;;;5047644;28;20272;-79
2023/08/22 09:40:02;;;;;;;3.72;1.50;;;26.60;56.10;28.20;101937.00;;;;5041937;28;20204;-78
2023/08/22 09:42:30;;;;;;;3.25;1.35;;;26.70;56.40;28.30;101945.00;;;;5046738;28;20200;-79
2023/08/22 09:44:57;;;;;;;2.92;1.23;;;26.80;56.00;28.40;101939.00;;;;5044823;28;20253;-80
2023/08/22 09:47:29;;;;;;;1.17;1.00;;;26.90;56.00;28.50;101935.00;;;;5042314;28;20234;-79
2023/08/22 09:50:02;;;;;;;1.92;1.40;;;26.90;55.90;28.60;101932.00;;;;5047435;28;20198;-79
2023/08/22 09:52:31;;;;;;;2.97;1.02;;;27.00;55.60;28.70;101939.00;;;;5047880;28;20223;-79
2023/08/22 09:54:59;;;;;;;2.63;1.17;;;27.10;55.50;28.70;101934.00;;;;5049536;28;20215;-79
2023/08/22 09:57:28;;;;;;;1.48;1.02;;;27.20;55.20;28.80;101940.00;;;;5041111;28;20196;-79
2023/08/22 09:59:56;;;;;;;4.43;1.38;;;27.30;55.20;28.90;101934.00;;;;5043026;28;20238;-80
2023/08/22 10:02:24;;;;;;;3.80;1.60;;;27.40;55.30;29.00;101949.00;;;;5044450;28;20203;-80
2023/08/22 10:04:52;;;;;;;1.52;1.05;;;27.40;55.20;29.10;101944.00;;;;5048327;28;20200;-80
2023/08/22 10:07:20;;;;;;;1.55;1.27;;;27.60;55.20;29.20;101938.00;;;;5038266;28;20200;-79
2023/08/22 10:09:48;;;;;;;1.60;1.40;;;27.60;55.00;29.30;101943.00;;;;5045321;28;20200;-79
2023/08/22 10:12:18;;;;;;;1.35;1.02;;;27.70;54.60;29.30;101945.00;;;;5038205;28;20231;-80
2023/08/22 10:14:50;;;;;;;3.53;1.50;;;27.80;54.60;29.30;101942.00;;;;5044551;28;20218;-79
2023/08/22 10:17:17;;;;;;;2.22;1.00;;;27.90;54.60;29.40;101945.00;;;;5045967;28;20204;-79
2023/08/22 10:19:45;;;;;;;3.85;0.70;;;27.90;54.30;29.40;101950.00;;;;5049248;28;20191;-79
2023/08/22 10:22:14;;;;;;;1.27;0.85;;;27.90;54.10;29.40;101948.00;;;;5048088;28;20295;-80
2023/08/22 10:24:43;;;;;;;2.17;1.10;;;28.00;54.00;29.40;101937.00;;;;5041628;28;20208;-79
2023/08/22 10:27:13;;;;;;;1.15;0.90;;;28.00;53.70;29.40;101948.00;;;;5047626;28;20230;-79
2023/08/22 10:29:45;;;;;;;1.27;0.98;;;28.00;53.60;29.40;101943.00;;;;5046812;28;20220;-80
2023/08/22 10:32:25;;;;;;;1.80;1.13;;;28.00;53.60;29.30;101943.00;;;;5045785;28;20219;-80
2023/08/22 10:35:23;;;;;;;1.48;1.00;;;28.00;53.20;29.30;101954.00;;;;5046832;28;20195;-79
2023/08/22 10:37:52;;;;;;;1.60;1.15;;;28.00;53.00;29.40;101952.00;;;;5046690;28;20199;-79
2023/08/22 10:40:32;;;;;;;2.92;0.80;;;27.90;53.20;29.30;101947.00;;;;5045465;28;20199;-79
2023/08/22 10:43:12;;;;;;;1.23;0.88;;;27.90;52.60;29.20;101942.00;;;;5045516;28;20572;-80
2023/08/22 10:45:49;;;;;;;6.15;1.20;;;27.90;52.70;29.30;101950.00;;;;5040406;28;20203;-79
2023/08/22 10:48:19;;;;;;;1.38;1.20;;;27.90;53.10;29.30;101944.00;;;;5044724;28;20223;-79
2023/08/22 10:50:49;;;;;;;1.77;1.20;;;27.90;53.00;29.30;101942.00;;;;5047280;28;20210;-79
2023/08/22 10:53:27;;;;;;;2.22;1.38;;;27.90;53.20;29.20;101941.00;;;;5048266;28;20784;-78